Aurora, CO (80042)

9:28 AM MDT on July 07, 2015 (GMT -0600)
Arapahoe2 | | Change Station
CLOSE
Current Station
Personal Weather Station
Location: Aurora, CO
Elevation: 5531 ft
Nearby Weather Stations

Elev 5531 ft 39.73 °N, 104.77 °W | Updated 6 seconds ago

Mostly Cloudy
Mostly Cloudy
64.0 °F
Feels Like 64.0 °F
N
4.9
Wind Variable Wind from South
Gusts 10.0 mph

Today
High -- | Low -- °F
--% Chance of Precip.
Yesterday
High -- | Low -- °F
Precip. -- in
5:38 AM 8:29 PM
Waning Gibbous, 64% visible
Pressure 30.05 in
Visibility 7.0 miles
Clouds Few 6000 ft
Mostly Cloudy 12000 ft
Mostly Cloudy 22000 ft
Dew Point 54 °F
Humidity 69%
Rainfall 0.00 in
Snow Depth Not available.
UV 2 out of 12
Pollen 4.80 out of 12
Air Quality Not available.
Flu Activity Not available.
METAR KBKF 071458Z 18015G18KT 7SM FEW060 BKN120 BKN220 18/12 A3022 RMK AO2A SLP174 T01750116 58002

More Conditions Fewer Conditions

Pressure 30.05 in
Visibility 7.0 miles
Clouds Few 6000 ft
Mostly Cloudy 12000 ft
Mostly Cloudy 22000 ft
Dew Point 54 °F
Humidity 69%
Rainfall 0.00 in
Snow Depth Not available.
UV 2 out of 12
Pollen 4.80 out of 12
Air Quality Not available.
Flu Activity Not available.
METAR KBKF 071458Z 18015G18KT 7SM FEW060 BKN120 BKN220 18/12 A3022 RMK AO2A SLP174 T01750116 58002

More Conditions Fewer Conditions

10-Day Weather Forecast

×

Almanac

Astronomy

Jul. 07, 2015 Rise Set
Actual Time
Civil Twilight
Nautical Twilight
Astronomical Twilight
Moon
Length of Visible Light
Length of Day
Tomorrow will be .
, % of the Moon is Illuminated

Today's Extremes

State Highs State Lows

Community

WunderPhotos

Upload Photos

1,835,816 photos uploaded!

WunderBlogs® & News

Nearby

Air Quality

  Air Quality AQ Index Pollutant
Not available.

Snow Depth

Station Depth Elevation

Earthquake Activity

City Distance Mag. Time & Date
Minimum magnitude displayed is 2.5.

Coastal Water Temperatures

Place Temperature

Stations

Nearby Weather Stations

Station Location Temp. Windchill Dew Point Humidity Wind Precip. Elev Updated Type